createdAt,value
2019-02-17T00:00:59.229Z,84.31
2019-02-17T00:01:59.284Z,84.03
2019-02-17T00:02:58.943Z,84.78
2019-02-17T00:03:59.196Z,84.69
2019-02-17T00:04:59.174Z,85.07
2019-02-17T00:05:59.175Z,84.88
2019-02-17T00:06:58.928Z,85.26
2019-02-17T00:07:59.148Z,85.26
2019-02-17T00:08:59.147Z,84.88
2019-02-17T00:09:59.131Z,85.36
2019-02-17T00:10:59.129Z,85.83
2019-02-17T00:11:59.108Z,86.02
2019-02-17T00:12:59.099Z,85.83
2019-02-17T00:13:58.843Z,85.83
2019-02-17T00:14:58.831Z,85.64
2019-02-17T00:15:59.064Z,85.74
2019-02-17T00:16:58.833Z,85.74
2019-02-17T00:17:59.061Z,85.64
2019-02-17T00:18:59.036Z,85.74
2019-02-17T00:19:59.035Z,85.55
2019-02-17T00:20:59.012Z,86.21
2019-02-17T00:21:58.764Z,85.93
2019-02-17T00:22:59.009Z,86.11
2019-02-17T00:23:58.734Z,86.59
2019-02-17T00:24:58.718Z,86.78
2019-02-17T00:25:59.002Z,86.97
2019-02-17T00:26:58.951Z,87.16
2019-02-17T00:27:58.699Z,86.49
2019-02-17T00:29:02.109Z,87.35
2019-02-17T00:29:58.700Z,87.82
2019-02-17T00:30:58.912Z,88.1
2019-02-17T00:31:58.899Z,88.2
2019-02-17T00:32:58.641Z,88.2
2019-02-17T00:33:58.638Z,88.63
2019-02-17T00:34:58.628Z,88.16
2019-02-17T00:35:58.858Z,88.44
2019-02-17T00:36:58.618Z,88.44
2019-02-17T00:37:58.592Z,88.82
2019-02-17T00:38:58.848Z,88.54
2019-02-17T00:39:58.821Z,88.92
2019-02-17T00:40:58.579Z,89.58
2019-02-17T00:41:58.808Z,89.11
2019-02-17T00:42:58.541Z,88.92
2019-02-17T00:43:58.779Z,88.73
2019-02-17T00:44:58.521Z,88.54
2019-02-17T00:45:58.752Z,88.73
2019-02-17T00:46:58.502Z,88.73
2019-02-17T00:47:58.483Z,88.35
2019-02-17T00:48:58.752Z,88.63
2019-02-17T00:49:58.470Z,88.06
2019-02-17T00:50:58.459Z,88.82
2019-02-17T00:51:58.457Z,88.73
2019-02-17T00:52:58.684Z,88.92
2019-02-17T00:53:58.424Z,89.2
2019-02-17T00:54:58.673Z,89.39
2019-02-17T00:55:58.653Z,89.2
2019-02-17T00:56:58.641Z,89.29
2019-02-17T00:57:58.627Z,89.58
2019-02-17T00:58:58.614Z,90.05
2019-02-17T00:59:58.356Z,90.34
2019-02-17T01:00:58.603Z,90.43
2019-02-17T01:01:58.596Z,90.43
2019-02-17T01:02:58.328Z,90.24
2019-02-17T01:03:58.317Z,90.05
2019-02-17T01:04:58.561Z,90.15
2019-02-17T01:05:58.546Z,90.43
2019-02-17T01:06:58.541Z,90.24
2019-02-17T01:07:58.528Z,90.81
2019-02-17T01:08:58.264Z,91.19
2019-02-17T01:09:58.501Z,91.28
2019-02-17T01:10:58.488Z,91.38
2019-02-17T01:11:58.230Z,91.28
2019-02-17T01:12:58.230Z,91.28
2019-02-17T01:13:58.460Z,91.57
2019-02-17T01:14:58.453Z,92.14
2019-02-17T01:15:58.437Z,91.47
2019-02-17T01:16:58.187Z,91.19
2019-02-17T01:17:58.160Z,91.19
2019-02-17T01:18:58.149Z,91.28
2019-02-17T01:19:58.395Z,91.85
2019-02-17T01:20:58.373Z,92.33
2019-02-17T01:21:58.366Z,91.95
2019-02-17T01:22:58.356Z,92.14
2019-02-17T01:23:58.644Z,91.28
2019-02-17T01:24:58.335Z,92.23
2019-02-17T01:25:58.092Z,91.95
2019-02-17T01:26:58.307Z,92.33
2019-02-17T01:27:58.054Z,92.23
2019-02-17T01:28:58.050Z,91.85
2019-02-17T01:29:58.020Z,91.85
2019-02-17T01:30:58.278Z,92.85
2019-02-17T01:31:58.251Z,92.76
2019-02-17T01:32:58.241Z,92.94
2019-02-17T01:33:59.581Z,92.94
2019-02-17T01:34:58.213Z,92.76
2019-02-17T01:35:58.215Z,92.94
2019-02-17T01:36:57.939Z,93.51
2019-02-17T01:37:58.346Z,93.13
2019-02-17T01:38:58.182Z,93.7
2019-02-17T01:39:57.911Z,94.08
2019-02-17T01:40:58.151Z,94.18
2019-02-17T01:41:58.140Z,94.27
2019-02-17T01:42:58.138Z,93.7
2019-02-17T01:43:58.116Z,94.56
2019-02-17T01:44:58.098Z,93.8
2019-02-17T01:45:58.088Z,94.27
2019-02-17T01:46:58.075Z,93.89
2019-02-17T01:47:58.056Z,94.18
2019-02-17T01:48:58.047Z,94.08
2019-02-17T01:49:58.040Z,94.27
2019-02-17T01:50:57.797Z,94.18
2019-02-17T01:51:58.022Z,94.18
2019-02-17T01:52:58.026Z,94.18
2019-02-17T01:53:57.737Z,94.08
2019-02-17T01:54:57.726Z,94.46
2019-02-17T01:55:57.737Z,95.03
2019-02-17T01:56:57.979Z,95.5
2019-02-17T01:57:57.943Z,94.56
2019-02-17T01:58:57.975Z,94.74
2019-02-17T01:59:57.931Z,95.12
2019-02-17T02:00:57.905Z,95.22
2019-02-17T02:01:57.650Z,95.5
2019-02-17T02:02:57.883Z,95.6
2019-02-17T02:03:57.614Z,95.6
2019-02-17T02:04:57.862Z,95.5
2019-02-17T02:05:57.844Z,95.12
2019-02-17T02:06:57.828Z,96.26
2019-02-17T02:07:57.821Z,95.98
2019-02-17T02:08:57.565Z,95.12
2019-02-17T02:09:57.557Z,95.22
2019-02-17T02:10:57.544Z,95.12
2019-02-17T02:11:57.769Z,95.03
2019-02-17T02:12:57.764Z,95.98
2019-02-17T02:13:57.508Z,95.31
2019-02-17T02:14:57.488Z,95.6
2019-02-17T02:15:57.739Z,95.5
2019-02-17T02:16:57.709Z,95.03
2019-02-17T02:17:57.454Z,96.17
2019-02-17T02:18:57.686Z,96.17
2019-02-17T02:19:57.692Z,95.88
2019-02-17T02:20:57.669Z,96.07
2019-02-17T02:21:57.655Z,95.31
2019-02-17T02:22:57.632Z,95.5
2019-02-17T02:23:57.628Z,95.5
2019-02-17T02:24:57.369Z,95.98
2019-02-17T02:25:57.611Z,95.98
2019-02-17T02:26:57.605Z,96.26
2019-02-17T02:27:57.587Z,96.36
2019-02-17T02:28:57.584Z,96.07
2019-02-17T02:29:57.560Z,97.11
2019-02-17T02:30:57.558Z,96.55
2019-02-17T02:31:57.547Z,96.73
2019-02-17T02:32:57.290Z,96.92
2019-02-17T02:33:57.519Z,96.64
2019-02-17T02:34:57.527Z,96.92
2019-02-17T02:35:57.496Z,96.26
2019-02-17T02:36:57.483Z,96.73
2019-02-17T02:37:57.478Z,96.92
2019-02-17T02:38:57.481Z,96.92
2019-02-17T02:39:57.459Z,97.3
2019-02-17T02:40:57.435Z,97.59
2019-02-17T02:41:57.191Z,97.21
2019-02-17T02:42:57.423Z,97.59
2019-02-17T02:43:57.438Z,97.49
2019-02-17T02:44:57.410Z,97.49
2019-02-17T02:45:57.142Z,97.3
2019-02-17T02:46:57.380Z,97.59
2019-02-17T02:47:57.384Z,98.01
2019-02-17T02:48:57.111Z,98.25
2019-02-17T02:49:57.095Z,98.25
2019-02-17T02:50:57.337Z,97.49
2019-02-17T02:51:57.090Z,97.82
2019-02-17T02:52:57.309Z,98.01
2019-02-17T02:53:57.306Z,98.01
2019-02-17T02:54:57.044Z,98.35
2019-02-17T02:55:57.030Z,97.92
2019-02-17T02:56:57.255Z,98.16
2019-02-17T02:57:57.020Z,98.16
2019-02-17T02:58:57.005Z,97.97
2019-02-17T02:59:56.996Z,97.97
2019-02-17T03:00:57.222Z,98.25
2019-02-17T03:01:57.216Z,97.97
2019-02-17T03:02:57.194Z,98.16
2019-02-17T03:03:56.950Z,98.54
2019-02-17T03:04:56.932Z,97.87
2019-02-17T03:05:57.197Z,97.82
2019-02-17T03:06:56.912Z,97.92
2019-02-17T03:07:57.156Z,97.82
2019-02-17T03:08:57.126Z,97.63
2019-02-17T03:09:57.179Z,98.11
2019-02-17T03:10:57.116Z,98.01
2019-02-17T03:11:56.917Z,98.2
2019-02-17T03:12:57.087Z,98.68
2019-02-17T03:13:57.147Z,98.39
2019-02-17T03:14:57.061Z,98.68
2019-02-17T03:15:56.801Z,98.49
2019-02-17T03:16:57.039Z,98.68
2019-02-17T03:17:57.028Z,99.62
2019-02-17T03:18:57.031Z,99.15
2019-02-17T03:19:57.002Z,99.05
2019-02-17T03:20:56.763Z,99.62
2019-02-17T03:21:56.987Z,99.99
2019-02-17T03:22:56.965Z,99.99
2019-02-17T03:23:56.975Z,99.99
2019-02-17T03:24:56.696Z,99.99
2019-02-17T03:25:56.696Z,99.99
2019-02-17T03:26:56.917Z,99.99
2019-02-17T03:27:56.911Z,99.99
2019-02-17T03:28:56.891Z,99.99
2019-02-17T03:30:07.468Z,99.99
2019-02-17T03:30:56.906Z,99.99
2019-02-17T03:31:56.966Z,99.99
2019-02-17T03:32:56.858Z,99.99
2019-02-17T03:33:56.857Z,99.99
2019-02-17T03:34:56.611Z,99.99
2019-02-17T03:35:56.825Z,99.99
2019-02-17T03:36:56.805Z,99.99
2019-02-17T03:37:56.542Z,99.99
2019-02-17T03:38:56.774Z,99.99
2019-02-17T03:39:56.508Z,99.99
2019-02-17T03:40:56.766Z,99.99
2019-02-17T03:41:56.730Z,99.99
2019-02-17T03:42:56.728Z,99.99
2019-02-17T03:43:56.708Z,99.99
2019-02-17T03:44:56.715Z,99.99
2019-02-17T03:45:56.446Z,99.99
2019-02-17T03:46:56.679Z,99.99
2019-02-17T03:47:56.683Z,99.99
2019-02-17T03:48:56.684Z,99.99
2019-02-17T03:49:56.640Z,99.99
2019-02-17T03:50:56.641Z,99.99
2019-02-17T03:51:56.617Z,99.99
2019-02-17T03:52:56.612Z,99.99
2019-02-17T03:53:56.596Z,99.99
2019-02-17T03:54:56.589Z,99.99
2019-02-17T03:55:56.579Z,99.99
2019-02-17T03:56:56.566Z,99.99
2019-02-17T03:57:56.304Z,99.99
2019-02-17T03:58:56.544Z,99.99
2019-02-17T03:59:56.524Z,99.99
2019-02-17T04:00:56.523Z,99.99
2019-02-17T04:01:56.509Z,99.99
2019-02-17T04:02:56.487Z,99.99
2019-02-17T04:03:56.240Z,99.99
2019-02-17T04:04:56.724Z,99.99
2019-02-17T04:05:56.495Z,99.99
2019-02-17T04:06:56.459Z,99.99
2019-02-17T04:07:56.454Z,99.99
2019-02-17T04:08:56.511Z,99.99
2019-02-17T04:09:56.410Z,99.99
2019-02-17T04:10:56.403Z,99.99
2019-02-17T04:11:56.397Z,99.99
2019-02-17T04:12:56.378Z,99.99
2019-02-17T04:13:56.366Z,99.99
2019-02-17T04:14:56.364Z,99.99
2019-02-17T04:15:56.349Z,99.99
2019-02-17T04:16:56.084Z,99.99
2019-02-17T04:17:56.391Z,99.99
2019-02-17T04:18:56.131Z,99.99
2019-02-17T04:19:56.051Z,99.99
2019-02-17T04:20:56.297Z,99.99
2019-02-17T04:21:56.289Z,99.99
2019-02-17T04:22:56.018Z,99.99
2019-02-17T04:23:56.257Z,99.99
2019-02-17T04:24:56.255Z,99.99
2019-02-17T04:25:56.245Z,99.99
2019-02-17T04:26:55.990Z,99.99
2019-02-17T04:27:56.218Z,99.99
2019-02-17T04:28:56.214Z,99.99
2019-02-17T04:29:55.946Z,99.99
2019-02-17T04:30:55.939Z,99.99
2019-02-17T04:31:55.928Z,99.99
2019-02-17T04:32:56.307Z,99.99
2019-02-17T04:33:56.148Z,99.99
2019-02-17T04:34:55.884Z,99.99
2019-02-17T04:35:55.874Z,99.99
2019-02-17T04:36:56.116Z,99.99
2019-02-17T04:37:55.847Z,99.99
2019-02-17T04:38:55.830Z,99.99
2019-02-17T04:39:56.076Z,99.99
2019-02-17T04:40:56.064Z,99.99
2019-02-17T04:41:56.068Z,99.99
2019-02-17T04:42:55.791Z,99.99
2019-02-17T04:43:55.784Z,99.99
2019-02-17T04:44:56.017Z,99.99
2019-02-17T04:45:56.019Z,99.99
2019-02-17T04:46:55.770Z,99.99
2019-02-17T04:47:56.008Z,99.99
2019-02-17T04:48:55.976Z,99.99
2019-02-17T04:49:55.708Z,99.99
2019-02-17T04:50:55.947Z,99.99
2019-02-17T04:51:55.950Z,99.99
2019-02-17T04:52:55.937Z,99.99
2019-02-17T04:53:55.926Z,99.99
2019-02-17T04:54:55.663Z,99.99
2019-02-17T04:55:55.653Z,99.99
2019-02-17T04:56:55.884Z,99.99
2019-02-17T04:57:55.865Z,99.99
2019-02-17T04:58:55.618Z,99.99
2019-02-17T04:59:55.852Z,99.99
2019-02-17T05:00:55.586Z,99.99
2019-02-17T05:01:55.829Z,99.99
2019-02-17T05:02:55.809Z,99.99
2019-02-17T05:03:55.810Z,99.99
2019-02-17T05:04:55.793Z,99.99
2019-02-17T05:05:55.536Z,99.99
2019-02-17T05:06:55.781Z,99.99
2019-02-17T05:07:55.758Z,99.99
2019-02-17T05:08:55.743Z,99.99
2019-02-17T05:09:55.489Z,99.99
2019-02-17T05:10:55.726Z,99.99
2019-02-17T05:11:55.456Z,99.99
2019-02-17T05:12:55.450Z,99.99
2019-02-17T05:13:55.436Z,99.99
2019-02-17T05:14:55.679Z,99.99
2019-02-17T05:15:55.659Z,99.99
2019-02-17T05:16:55.652Z,99.99
2019-02-17T05:17:55.647Z,99.99
2019-02-17T05:18:55.639Z,99.99
2019-02-17T05:19:55.618Z,99.99
2019-02-17T05:20:55.606Z,99.99
2019-02-17T05:21:55.606Z,99.99
2019-02-17T05:22:55.336Z,99.99
2019-02-17T05:23:55.326Z,99.99
2019-02-17T05:24:55.571Z,99.99
2019-02-17T05:25:55.299Z,99.99
2019-02-17T05:26:55.535Z,99.99
2019-02-17T05:27:55.529Z,99.99
2019-02-17T05:28:56.546Z,99.99
2019-02-17T05:29:55.517Z,99.99
2019-02-17T05:30:56.025Z,99.99
2019-02-17T05:31:55.491Z,99.99
2019-02-17T05:32:55.469Z,99.99
2019-02-17T05:33:55.245Z,99.99
2019-02-17T05:34:55.229Z,99.99
2019-02-17T05:35:55.432Z,99.99
2019-02-17T05:36:55.180Z,99.99
2019-02-17T05:37:55.408Z,99.99
2019-02-17T05:38:55.151Z,99.99
2019-02-17T05:39:55.399Z,99.99
2019-02-17T05:40:55.134Z,99.99
2019-02-17T05:41:55.365Z,99.99
2019-02-17T05:42:55.367Z,99.99
2019-02-17T05:43:55.099Z,99.99
2019-02-17T05:44:55.352Z,99.99
2019-02-17T05:45:55.315Z,99.99
2019-02-17T05:46:55.309Z,99.99
2019-02-17T05:47:55.310Z,99.99
2019-02-17T05:48:55.282Z,99.99
2019-02-17T05:49:55.028Z,99.99
2019-02-17T05:50:55.281Z,99.99
2019-02-17T05:51:55.268Z,99.99
2019-02-17T05:52:54.987Z,99.99
2019-02-17T05:53:55.247Z,99.99
2019-02-17T05:54:55.219Z,99.99
2019-02-17T05:55:55.211Z,99.99
2019-02-17T05:56:55.188Z,99.99
2019-02-17T05:57:55.186Z,99.99
2019-02-17T05:58:55.177Z,99.99
2019-02-17T05:59:55.149Z,99.99
2019-02-17T06:01:07.382Z,99.99
2019-02-17T06:01:55.131Z,99.99
2019-02-17T06:02:55.151Z,99.99
2019-02-17T06:03:55.112Z,99.99
2019-02-17T06:04:54.847Z,99.99
2019-02-17T06:05:55.931Z,99.99
2019-02-17T06:06:54.826Z,99.99
2019-02-17T06:07:54.823Z,99.99
2019-02-17T06:08:54.814Z,99.99
2019-02-17T06:09:55.042Z,99.99
2019-02-17T06:10:55.022Z,99.99
2019-02-17T06:11:55.054Z,99.99
2019-02-17T06:12:55.006Z,99.99
2019-02-17T06:13:54.739Z,99.99
2019-02-17T06:14:55.005Z,99.99
2019-02-17T06:15:54.770Z,99.99
2019-02-17T06:16:54.984Z,99.99
2019-02-17T06:17:54.963Z,99.99
2019-02-17T06:18:54.922Z,99.99
2019-02-17T06:19:54.940Z,99.99
2019-02-17T06:20:54.910Z,99.99
2019-02-17T06:21:54.914Z,99.99
2019-02-17T06:22:54.877Z,99.99
2019-02-17T06:23:54.630Z,99.99
2019-02-17T06:24:54.604Z,99.99
2019-02-17T06:25:54.868Z,99.99
2019-02-17T06:26:54.822Z,99.99
2019-02-17T06:27:54.818Z,99.99
2019-02-17T06:28:54.565Z,99.99
2019-02-17T06:29:54.837Z,99.99
2019-02-17T06:30:54.779Z,99.99
2019-02-17T06:31:54.778Z,99.99
2019-02-17T06:32:54.747Z,99.99
2019-02-17T06:33:54.734Z,99.99
2019-02-17T06:34:54.731Z,99.99
2019-02-17T06:35:54.717Z,99.99
2019-02-17T06:36:54.461Z,99.99
2019-02-17T06:37:54.697Z,99.99
2019-02-17T06:38:54.681Z,99.99
2019-02-17T06:39:54.663Z,99.99
2019-02-17T06:40:54.651Z,99.99
2019-02-17T06:41:54.643Z,99.99
2019-02-17T06:42:54.691Z,99.99
2019-02-17T06:43:54.616Z,99.99
2019-02-17T06:44:54.603Z,99.99
2019-02-17T06:45:54.335Z,99.99
2019-02-17T06:46:54.573Z,99.99
2019-02-17T06:47:54.308Z,99.99
2019-02-17T06:48:54.295Z,99.99
2019-02-17T06:49:54.287Z,99.99
2019-02-17T06:50:54.264Z,99.99
2019-02-17T06:51:54.511Z,99.99
2019-02-17T06:52:54.492Z,99.99
2019-02-17T06:53:54.233Z,99.99
2019-02-17T06:54:54.464Z,99.99
2019-02-17T06:55:54.449Z,99.99
2019-02-17T06:56:54.442Z,99.99
2019-02-17T06:57:54.432Z,99.99
2019-02-17T06:58:54.426Z,99.99
2019-02-17T06:59:54.160Z,99.99
2019-02-17T07:00:54.396Z,99.99
2019-02-17T07:01:54.138Z,99.99
2019-02-17T07:02:54.123Z,99.99
2019-02-17T07:03:54.409Z,99.99
2019-02-17T07:04:54.131Z,99.99
2019-02-17T07:05:56.656Z,99.99
2019-02-17T07:06:54.319Z,99.99
2019-02-17T07:07:54.304Z,99.99
2019-02-17T07:08:54.303Z,99.99
2019-02-17T07:09:54.289Z,99.99
2019-02-17T07:10:54.024Z,99.99
2019-02-17T07:11:54.007Z,99.99
2019-02-17T07:12:54.252Z,99.99
2019-02-17T07:13:54.044Z,99.99
2019-02-17T07:14:54.223Z,99.99
2019-02-17T07:15:54.242Z,99.99
2019-02-17T07:16:53.954Z,99.99
2019-02-17T07:17:54.258Z,99.99
2019-02-17T07:18:54.178Z,99.99
2019-02-17T07:19:53.941Z,99.99
2019-02-17T07:20:53.907Z,99.99
2019-02-17T07:21:54.147Z,99.99
2019-02-17T07:22:53.881Z,99.99
2019-02-17T07:23:54.116Z,99.99
2019-02-17T07:24:53.874Z,99.99
2019-02-17T07:25:53.852Z,99.99
2019-02-17T07:26:54.087Z,99.99
2019-02-17T07:27:53.845Z,99.99
2019-02-17T07:28:53.817Z,99.99
2019-02-17T07:29:53.799Z,99.96
2019-02-17T07:30:54.042Z,96.59
2019-02-17T07:31:53.782Z,90.48
2019-02-17T07:32:53.769Z,85.97
2019-02-17T07:33:54.016Z,83.03
2019-02-17T07:34:54.007Z,80.79
2019-02-17T07:35:54.022Z,78.89
2019-02-17T07:36:53.741Z,77.03
2019-02-17T07:37:53.983Z,75.32
2019-02-17T07:38:53.725Z,74.41
2019-02-17T07:39:53.971Z,73.08
2019-02-17T07:40:53.959Z,72.6
2019-02-17T07:41:53.957Z,72.32
2019-02-17T07:42:53.945Z,70.83
2019-02-17T07:43:53.696Z,69.79
2019-02-17T07:44:53.934Z,68.84
2019-02-17T07:45:53.680Z,68.55
2019-02-17T07:46:53.672Z,68.07
2019-02-17T07:47:53.920Z,67.92
2019-02-17T07:48:53.919Z,66.49
2019-02-17T07:49:53.904Z,66.3
2019-02-17T07:50:53.924Z,65.64
2019-02-17T07:51:53.677Z,64.69
2019-02-17T07:52:53.896Z,64.59
2019-02-17T07:53:53.899Z,65.45
2019-02-17T07:54:53.647Z,65.54
2019-02-17T07:55:53.647Z,65.45
2019-02-17T07:56:53.642Z,65.83
2019-02-17T07:57:53.885Z,66.65
2019-02-17T07:58:53.875Z,67.13
2019-02-17T07:59:53.641Z,67.22
2019-02-17T08:00:53.879Z,66.94
2019-02-17T08:01:53.621Z,68.17
2019-02-17T08:02:53.892Z,68.55
2019-02-17T08:03:53.845Z,67.22
2019-02-17T08:04:53.845Z,67.79
2019-02-17T08:05:53.594Z,68.8
2019-02-17T08:06:53.841Z,70.76
2019-02-17T08:07:53.846Z,73.1
2019-02-17T08:08:53.829Z,76.14
2019-02-17T08:09:53.822Z,77.43
2019-02-17T08:11:03.366Z,78.75
2019-02-17T08:11:53.818Z,78.75
2019-02-17T08:12:53.558Z,77.37
2019-02-17T08:13:53.553Z,74.27
2019-02-17T08:14:53.946Z,72.03
2019-02-17T08:15:53.800Z,70.89
2019-02-17T08:16:53.539Z,69.88
2019-02-17T08:17:53.791Z,68.46
2019-02-17T08:18:53.795Z,67.6
2019-02-17T08:19:53.768Z,66.87
2019-02-17T08:20:53.776Z,66.59
2019-02-17T08:21:53.526Z,65.92
2019-02-17T08:22:53.768Z,65.06
2019-02-17T08:23:53.511Z,64.78
2019-02-17T08:24:53.517Z,64.53
2019-02-17T08:25:53.746Z,64.31
2019-02-17T08:26:53.741Z,63.73
2019-02-17T08:27:53.742Z,64.31
2019-02-17T08:28:53.737Z,63.96
2019-02-17T08:29:53.737Z,63.76
2019-02-17T08:30:53.742Z,62.72
2019-02-17T08:31:58.452Z,63.67
2019-02-17T08:32:53.734Z,62.91
2019-02-17T08:33:53.728Z,63.29
2019-02-17T08:34:55.704Z,63.1
2019-02-17T08:35:53.470Z,63.39
2019-02-17T08:36:55.561Z,62.91
2019-02-17T08:37:53.747Z,62.72
2019-02-17T08:38:53.709Z,62.72
2019-02-17T08:39:53.634Z,62.91
2019-02-17T08:40:53.706Z,63.92
2019-02-17T08:41:53.452Z,65.83
2019-02-17T08:42:53.710Z,67.41
2019-02-17T08:43:53.450Z,69.56
2019-02-17T08:44:53.703Z,70.86
2019-02-17T08:45:53.692Z,73.04
2019-02-17T08:46:53.689Z,75.09
2019-02-17T08:47:53.686Z,76.52
2019-02-17T08:48:53.471Z,77.28
2019-02-17T08:49:53.680Z,78.28
2019-02-17T08:50:53.688Z,79.61
2019-02-17T08:51:53.421Z,80.37
2019-02-17T08:52:53.432Z,80.56
2019-02-17T08:53:53.666Z,81.41
2019-02-17T08:54:53.406Z,81.47
2019-02-17T08:55:53.670Z,82.51
2019-02-17T08:56:53.644Z,82.23
2019-02-17T08:57:53.638Z,82.6
2019-02-17T08:58:53.390Z,82.7
2019-02-17T08:59:53.623Z,82.6
2019-02-17T09:00:53.621Z,82.7
2019-02-17T09:01:53.367Z,83.46
2019-02-17T09:02:53.361Z,83.94
2019-02-17T09:03:53.349Z,83.65
2019-02-17T09:04:53.599Z,83.46
2019-02-17T09:05:53.590Z,82.98
2019-02-17T09:06:53.586Z,82.98
2019-02-17T09:07:53.580Z,82.55
2019-02-17T09:08:53.586Z,82.74
2019-02-17T09:09:53.565Z,82.84
2019-02-17T09:10:53.549Z,83.03
2019-02-17T09:11:53.296Z,82.93
2019-02-17T09:12:53.527Z,83.03
2019-02-17T09:13:53.536Z,82.17
2019-02-17T09:14:53.519Z,82.17
2019-02-17T09:15:53.527Z,82.17
2019-02-17T09:16:53.250Z,82.08
2019-02-17T09:17:53.493Z,81.51
2019-02-17T09:18:53.484Z,80.84
2019-02-17T09:19:53.256Z,81.04
2019-02-17T09:20:53.465Z,80.41
2019-02-17T09:21:53.461Z,80.69
2019-02-17T09:22:53.448Z,80.03
2019-02-17T09:23:53.442Z,80.03
2019-02-17T09:24:53.436Z,79.55
2019-02-17T09:25:53.442Z,78.89
2019-02-17T09:26:53.422Z,78.99
2019-02-17T09:27:53.170Z,79.27
2019-02-17T09:28:53.166Z,78.61
2019-02-17T09:29:53.399Z,78.8
2019-02-17T09:30:53.390Z,78.61
2019-02-17T09:31:53.382Z,77.84
2019-02-17T09:32:53.371Z,78.32
2019-02-17T09:33:53.366Z,77.6
2019-02-17T09:34:53.362Z,78.13
2019-02-17T09:35:53.355Z,77.41
2019-02-17T09:36:53.651Z,76.46
2019-02-17T09:37:53.333Z,76.84
2019-02-17T09:38:53.332Z,76.37
2019-02-17T09:39:53.336Z,76.75
2019-02-17T09:40:53.076Z,76.46
2019-02-17T09:41:53.314Z,76.18
2019-02-17T09:42:53.066Z,75.79
2019-02-17T09:43:53.066Z,75.23
2019-02-17T09:44:53.319Z,75.51
2019-02-17T09:45:53.285Z,75.42
2019-02-17T09:46:53.274Z,75.32
2019-02-17T09:47:53.021Z,75.04
2019-02-17T09:48:53.018Z,74.56
2019-02-17T09:49:53.009Z,74.98
2019-02-17T09:50:53.249Z,74.98
2019-02-17T09:51:52.990Z,74.75
2019-02-17T09:52:53.237Z,74.98
2019-02-17T09:53:53.223Z,74.69
2019-02-17T09:54:52.972Z,74.69
2019-02-17T09:55:55.099Z,74.31
2019-02-17T09:56:53.210Z,74.41
2019-02-17T09:57:53.195Z,73.74
2019-02-17T09:58:53.191Z,73.46
2019-02-17T09:59:53.182Z,73.08
2019-02-17T10:00:53.189Z,72.51
2019-02-17T10:01:53.178Z,72.6
2019-02-17T10:02:53.175Z,72.6
2019-02-17T10:03:53.156Z,72.6
2019-02-17T10:04:53.162Z,72.32
2019-02-17T10:05:52.904Z,71.94
2019-02-17T10:06:53.133Z,71.31
2019-02-17T10:07:53.757Z,71.12
2019-02-17T10:08:52.877Z,70.93
2019-02-17T10:09:53.123Z,71.41
2019-02-17T10:10:52.862Z,70.64
2019-02-17T10:11:53.116Z,70.36
2019-02-17T10:12:53.099Z,69.88
2019-02-17T10:13:53.096Z,70.26
2019-02-17T10:14:53.091Z,70.36
2019-02-17T10:15:53.144Z,69.98
2019-02-17T10:16:52.907Z,69.88
2019-02-17T10:17:53.113Z,69.88
2019-02-17T10:18:53.061Z,69.5
2019-02-17T10:19:53.074Z,69.5
2019-02-17T10:20:53.046Z,69.31
2019-02-17T10:21:53.040Z,69.5
2019-02-17T10:22:52.783Z,68.96
2019-02-17T10:23:53.026Z,68.59
2019-02-17T10:24:53.034Z,68.77
2019-02-17T10:25:53.034Z,68.49
2019-02-17T10:26:52.758Z,68.59
2019-02-17T10:27:53.031Z,67.92
2019-02-17T10:28:53.003Z,67.82
2019-02-17T10:29:52.989Z,67.73
2019-02-17T10:30:52.980Z,67.92
2019-02-17T10:31:52.736Z,67.16
2019-02-17T10:32:52.968Z,66.87
2019-02-17T10:33:52.979Z,66.39
2019-02-17T10:34:52.966Z,66.3
2019-02-17T10:35:52.702Z,66.33
2019-02-17T10:36:52.957Z,65.86
2019-02-17T10:37:52.703Z,65.86
2019-02-17T10:38:52.981Z,65.38
2019-02-17T10:39:52.686Z,65.67
2019-02-17T10:40:52.667Z,65.67
2019-02-17T10:41:52.667Z,65.48
2019-02-17T10:42:52.654Z,65.29
2019-02-17T10:43:52.672Z,65.38
2019-02-17T10:44:52.686Z,65.19
2019-02-17T10:45:52.884Z,65.19
2019-02-17T10:46:52.889Z,64.9
2019-02-17T10:47:52.951Z,64.9
2019-02-17T10:48:52.624Z,64.72
2019-02-17T10:49:52.614Z,64.84
2019-02-17T10:50:52.856Z,63.99
2019-02-17T10:51:52.852Z,63.99
2019-02-17T10:52:52.598Z,63.89
2019-02-17T10:53:52.845Z,64.18
2019-02-17T10:54:52.837Z,63.99
2019-02-17T10:55:52.834Z,64.18
2019-02-17T10:56:52.830Z,63.6
2019-02-17T10:57:52.825Z,63.51
2019-02-17T10:58:52.830Z,63.04
2019-02-17T10:59:52.566Z,63.7
2019-02-17T11:00:52.564Z,62.65
2019-02-17T11:01:52.792Z,63.23
2019-02-17T11:02:52.791Z,63.7
2019-02-17T11:03:52.540Z,62.94
2019-02-17T11:04:52.778Z,62.18
2019-02-17T11:05:52.780Z,62.97
2019-02-17T11:06:52.522Z,62.78
2019-02-17T11:07:52.784Z,62.4
2019-02-17T11:08:52.758Z,62.4
2019-02-17T11:09:52.531Z,62.3
2019-02-17T11:10:52.745Z,62.49
2019-02-17T11:11:52.750Z,62.4
2019-02-17T11:12:52.746Z,61.93
2019-02-17T11:13:52.738Z,61.83
2019-02-17T11:14:52.746Z,61.35
2019-02-17T11:15:52.471Z,61.25
2019-02-17T11:16:52.939Z,61.54
2019-02-17T11:17:52.713Z,61.16
2019-02-17T11:18:54.149Z,61.35
2019-02-17T11:19:52.440Z,61.07
2019-02-17T11:20:52.684Z,61.54
2019-02-17T11:21:52.919Z,61.25
2019-02-17T11:22:52.683Z,61.45
2019-02-17T11:23:52.666Z,61.38
2019-02-17T11:24:52.661Z,61.29
2019-02-17T11:25:52.431Z,61.67
2019-02-17T11:26:52.408Z,60.91
2019-02-17T11:27:52.403Z,60.62
2019-02-17T11:28:52.645Z,60.91
2019-02-17T11:29:52.406Z,60.91
2019-02-17T11:30:52.650Z,60.72
2019-02-17T11:31:52.378Z,60.72
2019-02-17T11:33:00.053Z,60.72
2019-02-17T11:33:52.366Z,60.91
2019-02-17T11:34:52.662Z,60.65
2019-02-17T11:35:52.631Z,60.27
2019-02-17T11:36:52.373Z,60.36
2019-02-17T11:37:52.602Z,59.99
2019-02-17T11:38:52.591Z,59.6
2019-02-17T11:39:52.589Z,59.51
2019-02-17T11:40:52.591Z,59.7
2019-02-17T11:41:52.334Z,59.7
2019-02-17T11:42:52.570Z,59.6
2019-02-17T11:43:52.317Z,59.89
2019-02-17T11:44:52.311Z,59.51
2019-02-17T11:45:52.570Z,59.03
2019-02-17T11:46:52.552Z,59.31
2019-02-17T11:47:52.320Z,59.12
2019-02-17T11:48:52.307Z,58.94
2019-02-17T11:49:52.535Z,59.31
2019-02-17T11:50:52.301Z,58.75
2019-02-17T11:51:52.541Z,58.77
2019-02-17T11:52:52.329Z,58.87
2019-02-17T11:53:52.278Z,58.68
2019-02-17T11:54:52.521Z,59.25
2019-02-17T11:55:52.529Z,58.75
2019-02-17T11:56:52.520Z,58.87
2019-02-17T11:57:52.522Z,58.97
2019-02-17T11:58:52.257Z,58.77
2019-02-17T11:59:52.518Z,58.87
2019-02-17T12:00:52.488Z,58.29
2019-02-17T12:01:52.496Z,58.11
2019-02-17T12:02:52.245Z,58.39
2019-02-17T12:03:52.483Z,58.29
2019-02-17T12:04:52.481Z,57.82
2019-02-17T12:05:52.474Z,58.58
2019-02-17T12:06:52.473Z,58.29
2019-02-17T12:07:52.221Z,57.53
2019-02-17T12:08:52.237Z,57.85
2019-02-17T12:09:52.212Z,56.7
2019-02-17T12:10:52.457Z,56.99
2019-02-17T12:11:52.454Z,56.8
2019-02-17T12:12:52.449Z,56.32
2019-02-17T12:13:52.210Z,56.32
2019-02-17T12:14:52.187Z,56.23
2019-02-17T12:15:52.446Z,56.04
2019-02-17T12:16:52.474Z,56.41
2019-02-17T12:17:52.423Z,56.32
2019-02-17T12:18:52.173Z,56.32
2019-02-17T12:19:52.418Z,56.04
2019-02-17T12:20:52.423Z,56.23
2019-02-17T12:21:52.417Z,55.84
2019-02-17T12:22:52.411Z,56.04
2019-02-17T12:23:52.411Z,56.04
2019-02-17T12:24:52.161Z,55.94
2019-02-17T12:25:52.405Z,56.35
2019-02-17T12:26:52.473Z,56.23
2019-02-17T12:27:52.408Z,55.49
2019-02-17T12:28:52.387Z,55.58
2019-02-17T12:29:52.382Z,55.68
2019-02-17T12:30:52.384Z,55.58
2019-02-17T12:31:52.135Z,55.58
2019-02-17T12:32:53.739Z,55.49
2019-02-17T12:33:52.374Z,55.01
2019-02-17T12:34:52.371Z,54.91
2019-02-17T12:35:52.364Z,54.91
2019-02-17T12:36:52.116Z,54.72
2019-02-17T12:37:52.370Z,54.91
2019-02-17T12:38:54.055Z,54.72
2019-02-17T12:39:52.368Z,54.91
2019-02-17T12:40:52.355Z,54.47
2019-02-17T12:41:52.101Z,54.18
2019-02-17T12:42:53.584Z,53.99
2019-02-17T12:43:52.340Z,53.99
2019-02-17T12:44:52.346Z,54.27
2019-02-17T12:45:52.342Z,54.27
2019-02-17T12:46:52.338Z,54.18
2019-02-17T12:48:00.346Z,53.99
2019-02-17T12:48:52.331Z,53.89
2019-02-17T12:49:52.330Z,53.8
2019-02-17T12:50:52.332Z,54.08
2019-02-17T12:51:52.080Z,53.7
2019-02-17T12:52:52.076Z,53.89
2019-02-17T12:53:52.372Z,53.53
2019-02-17T12:54:52.067Z,53.06